Time;durP1;ratioP1;P1;durP2;ratioP2;P2;SDS_P1;SDS_P2;PMS_P1;PMS_P2;Temp;Humidity;BMP_temperature;BMP_pressure;BME280_temperature;BME280_humidity;BME280_pressure;Samples;Min_cycle;Max_cycle;Signal;HPM_P1;HPM_P2
2022/12/18 00:01:17;;;;;;;65.97;42.10;;;;;;;10.72;100.00;99954.91;5050666;28;20283;-59
2022/12/18 00:03:44;;;;;;;65.77;40.80;;;;;;;10.85;100.00;99966.72;5050670;28;20192;-60
2022/12/18 00:06:13;;;;;;;68.10;42.83;;;;;;;10.78;100.00;99953.94;5050364;28;20220;-58
2022/12/18 00:08:40;;;;;;;71.23;44.13;;;;;;;10.74;100.00;99953.13;5050317;28;20204;-59
2022/12/18 00:11:08;;;;;;;67.53;41.50;;;;;;;10.77;100.00;99968.66;5050393;28;20196;-59
2022/12/18 00:13:35;;;;;;;62.40;41.43;;;;;;;10.67;100.00;99972.34;5051018;28;20288;-58
2022/12/18 00:16:07;;;;;;;67.37;41.80;;;;;;;10.68;100.00;99979.25;5050240;28;20229;-59
2022/12/18 00:18:34;;;;;;;68.97;42.23;;;;;;;10.75;100.00;99986.00;5050586;28;20284;-59
2022/12/18 00:21:01;;;;;;;66.23;41.23;;;;;;;10.68;100.00;100001.75;5050274;28;20208;-59
2022/12/18 00:23:29;;;;;;;63.60;41.77;;;;;;;10.68;100.00;100014.75;5050330;28;20288;-59
2022/12/18 00:25:59;;;;;;;63.00;39.77;;;;;;;10.55;100.00;100014.13;5049842;28;20314;-59
2022/12/18 00:28:26;;;;;;;61.50;38.80;;;;;;;10.59;100.00;100009.75;5049897;28;20200;-59
2022/12/18 00:31:01;;;;;;;63.70;39.43;;;;;;;10.71;100.00;100014.69;5049670;28;20201;-59
2022/12/18 00:33:29;;;;;;;60.27;37.43;;;;;;;10.75;100.00;100017.16;5050162;28;20655;-58
2022/12/18 00:36:01;;;;;;;58.30;36.53;;;;;;;10.79;100.00;100011.03;5049942;28;20197;-58
2022/12/18 00:38:28;;;;;;;56.73;36.57;;;;;;;10.82;100.00;100017.91;5050111;28;20193;-59
2022/12/18 00:40:55;;;;;;;46.43;34.03;;;;;;;10.77;100.00;100017.13;5049978;28;20207;-60
2022/12/18 00:43:21;;;;;;;52.03;34.47;;;;;;;10.93;100.00;100031.50;5049838;28;20229;-58
2022/12/18 00:45:48;;;;;;;48.20;31.80;;;;;;;10.89;100.00;100033.31;5049699;28;20263;-58
2022/12/18 00:48:15;;;;;;;48.03;32.50;;;;;;;10.87;100.00;100034.22;5049733;28;20222;-60
2022/12/18 00:50:43;;;;;;;63.73;39.60;;;;;;;10.72;100.00;100048.38;5050135;28;20201;-59
2022/12/18 00:53:10;;;;;;;58.97;37.67;;;;;;;10.65;100.00;100048.53;5049751;28;20204;-58
2022/12/18 00:55:38;;;;;;;66.20;40.73;;;;;;;10.60;100.00;100051.25;5049637;28;20203;-60
2022/12/18 00:58:05;;;;;;;65.77;41.63;;;;;;;10.61;100.00;100052.94;5049471;28;20219;-60
2022/12/18 01:00:32;;;;;;;69.40;41.63;;;;;;;10.47;100.00;100045.44;5049627;28;20284;-58
2022/12/18 01:02:59;;;;;;;54.40;38.90;;;;;;;10.44;100.00;100042.03;5049476;28;20211;-59
2022/12/18 01:05:26;;;;;;;64.83;39.47;;;;;;;10.38;100.00;100040.44;5049467;28;20315;-59
2022/12/18 01:07:56;;;;;;;67.13;39.63;;;;;;;10.38;100.00;100037.00;5049588;28;20736;-60
2022/12/18 01:10:24;;;;;;;60.07;38.37;;;;;;;10.23;100.00;100027.75;5049819;28;20193;-59
2022/12/18 01:12:51;;;;;;;56.73;37.10;;;;;;;10.29;100.00;100047.53;5049256;28;20192;-59
2022/12/18 01:15:19;;;;;;;60.30;37.70;;;;;;;10.29;100.00;100047.53;5049032;28;20311;-60
2022/12/18 01:17:46;;;;;;;54.73;35.77;;;;;;;10.31;100.00;100045.75;5049315;28;20198;-60
2022/12/18 01:20:14;;;;;;;60.53;37.60;;;;;;;10.28;100.00;100032.84;5048732;28;20207;-60
2022/12/18 01:22:41;;;;;;;54.57;35.83;;;;;;;10.36;100.00;100028.38;5049604;28;20738;-60
2022/12/18 01:25:09;;;;;;;57.17;35.17;;;;;;;10.29;100.00;100034.56;5048928;28;20224;-59
2022/12/18 01:27:36;;;;;;;52.10;33.47;;;;;;;10.31;100.00;100040.56;5048881;28;20197;-60
2022/12/18 01:30:04;;;;;;;55.47;34.63;;;;;;;10.25;100.00;100045.88;5048762;28;20296;-61
2022/12/18 01:32:31;;;;;;;51.83;35.27;;;;;;;10.18;100.00;100042.53;5048982;28;20203;-61
2022/12/18 01:34:58;;;;;;;55.30;35.53;;;;;;;10.12;100.00;100040.91;5049466;28;20598;-60
2022/12/18 01:37:25;;;;;;;56.73;36.20;;;;;;;10.12;100.00;100032.25;5049030;28;20207;-60
2022/12/18 01:39:54;;;;;;;55.93;35.33;;;;;;;10.23;100.00;100038.13;5048980;28;20202;-61
2022/12/18 01:42:22;;;;;;;48.93;35.00;;;;;;;10.29;100.00;100042.34;5049031;28;20283;-60
2022/12/18 01:44:59;;;;;;;51.97;34.20;;;;;;;10.33;100.00;100039.66;5048797;28;20207;-60
2022/12/18 01:47:31;;;;;;;45.77;32.50;;;;;;;10.37;100.00;100043.06;5049010;28;20207;-60
2022/12/18 01:50:02;;;;;;;49.87;32.90;;;;;;;10.38;100.00;100040.44;5048965;28;20192;-60
2022/12/18 01:52:31;;;;;;;52.97;32.87;;;;;;;10.34;100.00;100041.38;5049128;28;20280;-60
2022/12/18 01:55:00;;;;;;;52.37;33.63;;;;;;;10.19;100.00;100044.25;5049277;28;20192;-60
2022/12/18 01:57:29;;;;;;;51.23;34.07;;;;;;;10.17;100.00;100043.38;5048956;28;20219;-60
2022/12/18 02:00:01;;;;;;;47.30;33.77;;;;;;;10.24;100.00;100045.03;5049025;28;20557;-60
2022/12/18 02:02:29;;;;;;;48.70;33.93;;;;;;;10.32;100.00;100050.06;5048970;28;20257;-60
2022/12/18 02:04:56;;;;;;;46.17;31.93;;;;;;;10.34;100.00;100062.13;5048745;28;20579;-60
2022/12/18 02:07:33;;;;;;;51.00;32.53;;;;;;;10.32;100.00;100052.66;5048824;28;20207;-60
2022/12/18 02:10:04;;;;;;;47.53;31.33;;;;;;;10.38;100.00;100049.97;5048712;28;20292;-60
2022/12/18 02:12:42;;;;;;;46.90;30.67;;;;;;;10.43;100.00;100063.69;5048996;28;20226;-60
2022/12/18 02:15:17;;;;;;;43.77;29.63;;;;;;;10.42;100.00;100056.78;5048623;28;20275;-60
2022/12/18 02:17:49;;;;;;;41.37;28.23;;;;;;;10.46;100.00;100061.03;5048886;28;20879;-59
2022/12/18 02:20:23;;;;;;;41.10;28.83;;;;;;;10.42;100.00;100055.03;5048941;28;20197;-60
2022/12/18 02:23:05;;;;;;;45.00;29.00;;;;;;;10.41;100.00;100070.66;5048748;28;20284;-61
2022/12/18 02:25:56;;;;;;;39.83;27.83;;;;;;;10.31;100.00;100069.97;5048648;28;20220;-60
2022/12/18 02:28:27;;;;;;;35.93;25.87;;;;;;;10.39;100.00;100077.59;5048649;28;20201;-60
2022/12/18 02:30:57;;;;;;;38.53;25.80;;;;;;;10.44;100.00;100078.38;5049209;28;20203;-59
2022/12/18 02:33:26;;;;;;;40.10;25.57;;;;;;;10.57;100.00;100076.41;5052577;28;20197;-60
2022/12/18 02:35:56;;;;;;;36.53;26.53;;;;;;;10.60;100.00;100078.94;5052318;28;20587;-60
2022/12/18 02:38:24;;;;;;;35.73;25.50;;;;;;;10.63;100.00;100066.75;5052304;28;20197;-60
2022/12/18 02:40:54;;;;;;;35.30;24.97;;;;;;;10.76;100.00;100056.97;5052005;28;20703;-59
2022/12/18 02:43:21;;;;;;;33.83;24.67;;;;;;;10.80;100.00;100061.22;5052477;28;20592;-59
2022/12/18 02:45:50;;;;;;;32.53;23.13;;;;;;;10.84;100.00;100068.88;5052176;28;20232;-60
2022/12/18 02:48:19;;;;;;;37.27;24.13;;;;;;;10.79;100.00;100062.97;5051895;28;20195;-60
2022/12/18 02:50:55;;;;;;;33.50;24.00;;;;;;;10.83;100.00;100062.00;5051893;28;20197;-59
2022/12/18 02:53:29;;;;;;;32.20;22.93;;;;;;;10.72;100.00;100061.34;5051951;28;20204;-58
2022/12/18 02:56:04;;;;;;;29.63;22.10;;;;;;;10.83;100.00;100063.75;5052157;28;20696;-60
2022/12/18 02:58:38;;;;;;;31.53;22.40;;;;;;;10.83;100.00;100072.41;5051907;28;20200;-60
2022/12/18 03:01:14;;;;;;;35.63;22.23;;;;;;;10.83;100.00;100069.81;5051867;28;20203;-60
2022/12/18 03:03:48;;;;;;;30.97;21.80;;;;;;;10.84;100.00;100074.09;5051801;28;20196;-60
2022/12/18 03:06:22;;;;;;;32.87;21.50;;;;;;;10.73;100.00;100070.00;5051870;28;20261;-60
2022/12/18 03:08:52;;;;;;;29.73;20.87;;;;;;;10.79;100.00;100083.72;5051832;28;20207;-60
2022/12/18 03:12:22;;;;;;;29.40;21.53;;;;;;;10.83;100.00;100081.94;5051821;28;20227;-60
2022/12/18 03:14:08;;;;;;;28.83;20.47;;;;;;;10.82;100.00;100081.06;5051435;28;20197;-60
2022/12/18 03:16:37;;;;;;;25.20;20.17;;;;;;;10.83;100.00;100076.75;5051307;28;20238;-59
2022/12/18 03:19:09;;;;;;;27.07;20.70;;;;;;;10.84;100.00;100081.03;5051653;28;20201;-60
2022/12/18 03:21:43;;;;;;;26.77;19.73;;;;;;;10.71;100.00;100070.06;5051724;28;20635;-60
2022/12/18 03:24:12;;;;;;;24.27;19.37;;;;;;;10.86;100.00;100087.03;5051420;28;20199;-60
2022/12/18 03:26:45;;;;;;;27.90;20.17;;;;;;;10.73;100.00;100091.63;5051200;28;20224;-59
2022/12/18 03:29:18;;;;;;;26.00;20.80;;;;;;;10.60;100.00;100097.97;5051699;28;20193;-60
2022/12/18 03:31:50;;;;;;;27.50;19.97;;;;;;;10.64;100.00;100089.22;5051551;28;20222;-60
2022/12/18 03:34:23;;;;;;;27.43;19.97;;;;;;;10.67;100.00;100090.91;5051348;28;20198;-60
2022/12/18 03:36:50;;;;;;;27.00;20.20;;;;;;;10.65;100.00;100093.53;5051283;28;20195;-60
2022/12/18 03:39:17;;;;;;;27.27;19.47;;;;;;;10.68;100.00;100095.22;5051170;28;20204;-59
2022/12/18 03:41:52;;;;;;;28.60;19.33;;;;;;;10.75;100.00;100101.97;5051174;28;20196;-60
2022/12/18 03:44:27;;;;;;;27.07;19.70;;;;;;;10.81;100.00;100115.72;5050644;28;20203;-59
2022/12/18 03:47:05;;;;;;;25.93;18.77;;;;;;;10.79;100.00;100121.81;5051032;28;20613;-61
2022/12/18 03:49:37;;;;;;;24.40;17.70;;;;;;;10.79;100.00;100133.06;5050894;28;20196;-58
2022/12/18 03:52:08;;;;;;;25.13;17.97;;;;;;;10.82;100.00;100138.22;5061741;28;20200;-61
2022/12/18 03:54:36;;;;;;;26.40;18.00;;;;;;;10.79;100.00;100134.81;5071068;28;20694;-60
2022/12/18 03:57:10;;;;;;;23.03;16.83;;;;;;;10.75;100.00;100136.59;5070869;28;20192;-60
2022/12/18 03:59:40;;;;;;;23.03;17.07;;;;;;;10.72;100.00;100136.66;5070898;28;20257;-60
2022/12/18 04:02:09;;;;;;;22.03;15.33;;;;;;;10.79;100.00;100148.66;5070434;28;20199;-60
2022/12/18 04:04:36;;;;;;;19.20;16.03;;;;;;;10.76;100.00;100148.69;5070698;28;20291;-59
2022/12/18 04:07:05;;;;;;;21.70;16.10;;;;;;;10.77;100.00;100140.03;5070237;28;20226;-58
2022/12/18 04:09:34;;;;;;;22.23;15.67;;;;;;;10.79;100.00;100147.78;5070112;28;20194;-58
2022/12/18 04:12:00;;;;;;;19.80;15.23;;;;;;;10.73;100.00;100151.34;5070133;28;20744;-59
2022/12/18 04:14:29;;;;;;;18.87;14.73;;;;;;;10.73;100.00;100153.09;5070479;28;20196;-60
2022/12/18 04:16:56;;;;;;;17.70;14.57;;;;;;;10.70;100.00;100164.41;5070182;28;20227;-60
2022/12/18 04:19:23;;;;;;;21.00;15.03;;;;;;;10.76;100.00;100153.88;5070573;28;20612;-60
2022/12/18 04:21:49;;;;;;;17.23;14.03;;;;;;;10.71;100.00;100152.28;5070252;28;20290;-60
2022/12/18 04:24:16;;;;;;;17.60;13.73;;;;;;;10.68;100.00;100154.94;5070255;28;20202;-60
2022/12/18 04:26:43;;;;;;;17.23;14.10;;;;;;;10.60;100.00;100162.88;5054482;28;20216;-60
2022/12/18 04:29:10;;;;;;;16.63;14.40;;;;;;;10.55;100.00;100156.91;5029537;28;20608;-60
2022/12/18 04:31:38;;;;;;;15.50;13.50;;;;;;;10.61;100.00;100159.38;5029599;28;20217;-60
2022/12/18 04:34:06;;;;;;;19.40;13.80;;;;;;;10.60;100.00;100162.88;5029604;28;20254;-59
2022/12/18 04:36:33;;;;;;;16.13;13.07;;;;;;;10.65;100.00;100161.03;5030219;28;20631;-60
2022/12/18 04:38:59;;;;;;;14.60;12.47;;;;;;;10.65;100.00;100162.75;5029957;28;20233;-61
2022/12/18 04:41:26;;;;;;;14.13;11.87;;;;;;;10.65;100.00;100160.16;5049058;28;20803;-59
2022/12/18 04:43:53;;;;;;;13.50;11.03;;;;;;;10.66;100.00;100165.34;5049469;28;20220;-58
2022/12/18 04:46:20;;;;;;;14.57;10.03;;;;;;;10.56;100.00;100176.78;5048875;28;20236;-59
2022/12/18 04:48:48;;;;;;;12.70;9.87;;;;;;;10.48;100.00;100170.88;5049524;28;20307;-59
2022/12/18 04:51:16;;;;;;;12.23;9.83;;;;;;;10.46;100.00;100183.03;5049399;28;20227;-59
2022/12/18 04:53:43;;;;;;;12.10;9.67;;;;;;;10.46;100.00;100183.03;5049288;28;20343;-60
2022/12/18 04:56:11;;;;;;;9.37;8.47;;;;;;;10.46;100.00;100190.81;5048138;28;20216;-59
2022/12/18 04:58:39;;;;;;;10.17;9.13;;;;;;;10.40;100.00;100190.91;5057406;28;20606;-59
2022/12/18 05:01:07;;;;;;;12.27;9.27;;;;;;;10.37;100.00;100204.81;5067691;28;20203;-59
2022/12/18 05:03:34;;;;;;;12.00;8.63;;;;;;;10.24;100.00;100189.47;5067744;28;20214;-60
2022/12/18 05:06:03;;;;;;;8.97;8.17;;;;;;;10.33;100.00;100210.91;5068580;28;20774;-59
2022/12/18 05:08:29;;;;;;;8.13;7.37;;;;;;;10.23;100.00;100214.56;5069291;28;20579;-59
2022/12/18 05:11:00;;;;;;;8.37;7.60;;;;;;;10.11;100.00;100209.53;5069330;28;20206;-60
2022/12/18 05:13:27;;;;;;;9.50;7.03;;;;;;;10.30;100.00;100225.69;5069656;28;20196;-60
2022/12/18 05:15:54;;;;;;;7.63;6.97;;;;;;;10.29;100.00;100231.75;5069013;28;20238;-60
2022/12/18 05:18:21;;;;;;;8.13;7.40;;;;;;;10.22;100.00;100232.72;5069421;28;20196;-59
2022/12/18 05:20:48;;;;;;;7.20;6.60;;;;;;;10.25;100.00;100236.16;5069453;28;20495;-60
2022/12/18 05:23:16;;;;;;;7.23;6.63;;;;;;;10.17;100.00;100246.59;5069273;28;20206;-59
2022/12/18 05:25:43;;;;;;;6.50;6.00;;;;;;;10.15;100.00;100242.31;5069321;28;20211;-59
2022/12/18 05:28:10;;;;;;;6.90;6.07;;;;;;;10.14;100.00;100251.84;5068994;28;20234;-60
2022/12/18 05:30:37;;;;;;;10.90;7.03;;;;;;;10.13;100.00;100260.50;5069394;28;20200;-59
2022/12/18 05:33:04;;;;;;;9.57;7.00;;;;;;;10.14;100.00;100263.97;5065859;28;20204;-59
2022/12/18 05:35:31;;;;;;;7.80;7.00;;;;;;;10.14;100.00;100272.59;5065580;28;20214;-58
2022/12/18 05:37:58;;;;;;;8.20;7.40;;;;;;;10.19;100.00;100281.19;5067736;28;20638;-59
2022/12/18 05:40:26;;;;;;;7.87;7.17;;;;;;;10.18;100.00;100281.19;5068116;28;20652;-59
2022/12/18 05:42:53;;;;;;;8.90;7.63;;;;;;;10.13;100.00;100281.25;5068073;28;20716;-59
2022/12/18 05:45:21;;;;;;;8.40;7.47;;;;;;;9.99;100.00;100266.75;5067911;28;20194;-59
2022/12/18 05:47:47;;;;;;;9.27;8.33;;;;;;;10.10;100.00;100283.03;5067820;28;20691;-60
2022/12/18 05:50:15;;;;;;;9.80;7.50;;;;;;;10.09;100.00;100276.13;5067634;28;20193;-59
2022/12/18 05:52:42;;;;;;;8.07;7.37;;;;;;;10.11;100.00;100285.59;5063463;28;20223;-59
2022/12/18 05:55:09;;;;;;;7.93;7.13;;;;;;;10.12;100.00;100297.69;5068081;28;20196;-59
2022/12/18 05:57:37;;;;;;;9.10;7.90;;;;;;;10.17;100.00;100306.25;5067835;28;20672;-59
2022/12/18 06:00:05;;;;;;;8.50;7.60;;;;;;;10.02;100.00;100279.69;5067228;28;20257;-59
2022/12/18 06:02:32;;;;;;;7.97;7.27;;;;;;;10.24;100.00;100316.59;5067769;28;20584;-59
2022/12/18 06:04:59;;;;;;;8.00;7.27;;;;;;;10.24;100.00;100314.00;5068229;28;20277;-60
2022/12/18 06:07:26;;;;;;;8.53;6.90;;;;;;;10.26;100.00;100318.28;5071503;28;20251;-60
2022/12/18 06:09:53;;;;;;;8.03;7.23;;;;;;;10.28;100.00;100311.31;5070602;28;20664;-60
2022/12/18 06:12:20;;;;;;;7.90;7.10;;;;;;;10.26;100.00;100317.44;5071260;28;20230;-61
2022/12/18 06:14:48;;;;;;;8.97;6.67;;;;;;;10.28;100.00;100320.84;5070881;28;20219;-59
2022/12/18 06:17:15;;;;;;;7.57;6.87;;;;;;;10.33;100.00;100319.03;5068661;28;20192;-60
2022/12/18 06:19:42;;;;;;;8.90;7.93;;;;;;;10.26;100.00;100317.44;5071270;28;20192;-59
2022/12/18 06:22:09;;;;;;;9.13;7.73;;;;;;;10.28;100.00;100332.06;5070905;28;20195;-59
2022/12/18 06:24:35;;;;;;;10.87;7.30;;;;;;;10.33;100.00;100327.69;5071276;28;20199;-59
2022/12/18 06:27:02;;;;;;;9.30;7.53;;;;;;;10.35;100.00;100335.47;5071292;28;20204;-61
2022/12/18 06:29:29;;;;;;;8.40;7.47;;;;;;;10.37;100.00;100331.09;5071371;28;20196;-59
2022/12/18 06:31:58;;;;;;;9.23;7.57;;;;;;;10.39;100.00;100339.69;5070643;28;20578;-60
2022/12/18 06:34:25;;;;;;;9.33;7.00;;;;;;;10.39;100.00;100340.56;5072177;28;20283;-60
2022/12/18 06:36:52;;;;;;;7.17;6.43;;;;;;;10.42;100.00;100358.69;5071685;28;20206;-60
2022/12/18 06:39:18;;;;;;;7.17;6.47;;;;;;;10.44;100.00;100363.88;5072143;28;20687;-60
2022/12/18 06:41:45;;;;;;;7.57;6.87;;;;;;;10.42;100.00;100360.44;5072125;28;20570;-59
2022/12/18 06:44:12;;;;;;;7.60;6.70;;;;;;;10.42;100.00;100373.41;5072205;28;20568;-60
2022/12/18 06:46:39;;;;;;;8.73;7.10;;;;;;;10.39;100.00;100376.91;5072555;28;20220;-60
2022/12/18 06:49:09;;;;;;;7.47;6.80;;;;;;;10.42;100.00;100382.03;5072268;28;20240;-60
2022/12/18 06:51:36;;;;;;;9.03;6.53;;;;;;;10.47;100.00;100382.00;5071670;28;20283;-59
2022/12/18 06:54:03;;;;;;;7.47;6.77;;;;;;;10.39;100.00;100369.09;5072143;28;20206;-59
2022/12/18 06:56:31;;;;;;;7.70;7.00;;;;;;;10.43;100.00;100388.09;5063182;28;20255;-62
2022/12/18 06:58:58;;;;;;;9.03;6.50;;;;;;;10.43;100.00;100383.75;5034299;28;20729;-59
2022/12/18 07:01:25;;;;;;;10.27;7.20;;;;;;;10.36;100.00;100386.47;5063694;28;20614;-61
2022/12/18 07:03:54;;;;;;;7.95;7.15;;;;;;;10.36;100.00;100404.66;5070766;28;20433;-56
2022/12/18 07:06:25;;;;;;;8.67;7.27;;;;;;;10.39;100.00;100401.97;5071680;28;20203;-61
2022/12/18 07:08:54;;;;;;;8.30;6.80;;;;;;;10.41;100.00;100406.28;5070826;28;20200;-60
2022/12/18 07:11:21;;;;;;;7.43;6.73;;;;;;;10.40;100.00;100404.56;5071141;28;20200;-58
2022/12/18 07:13:48;;;;;;;8.57;6.93;;;;;;;10.40;100.00;100404.56;5071235;28;20591;-59
2022/12/18 07:16:17;;;;;;;8.73;7.50;;;;;;;10.44;100.00;100413.19;5071322;28;20263;-60
2022/12/18 07:18:44;;;;;;;7.70;6.90;;;;;;;10.45;100.00;100409.69;5070831;28;20708;-60
2022/12/18 07:21:12;;;;;;;8.10;7.30;;;;;;;10.45;100.00;100409.69;5071019;28;20200;-58
2022/12/18 07:23:41;;;;;;;8.33;7.53;;;;;;;10.44;100.00;100416.63;5070755;28;20211;-57
2022/12/18 07:26:09;;;;;;;7.97;7.23;;;;;;;10.44;100.00;100418.38;5071126;28;20200;-56
2022/12/18 07:28:37;;;;;;;7.97;7.27;;;;;;;10.38;100.00;100431.44;5063593;28;20223;-57
2022/12/18 07:31:05;;;;;;;7.87;7.07;;;;;;;10.41;100.00;100426.19;5069518;28;20688;-56
2022/12/18 07:33:33;;;;;;;8.93;8.03;;;;;;;10.40;100.00;100419.28;5070437;28;20192;-57
2022/12/18 07:36:00;;;;;;;7.90;7.20;;;;;;;10.36;100.00;100428.88;5070279;28;20594;-57
2022/12/18 07:38:27;;;;;;;7.87;7.07;;;;;;;10.44;100.00;100426.16;5070999;28;20191;-57
2022/12/18 07:40:55;;;;;;;9.23;7.43;;;;;;;10.47;100.00;100424.38;5070285;28;20200;-57
2022/12/18 07:43:22;;;;;;;8.63;7.73;;;;;;;10.48;100.00;100433.88;5070285;28;20192;-60
2022/12/18 07:45:50;;;;;;;9.80;8.03;;;;;;;10.45;100.00;100433.06;5070388;28;20208;-60
2022/12/18 07:48:17;;;;;;;8.00;7.23;;;;;;;10.43;100.00;100432.22;5057701;28;20228;-60
2022/12/18 07:50:44;;;;;;;10.80;7.93;;;;;;;10.45;100.00;100438.25;5029549;28;20221;-61
2022/12/18 07:53:11;;;;;;;10.00;8.57;;;;;;;10.51;100.00;100445.94;5030455;28;20723;-59
2022/12/18 07:55:38;;;;;;;9.00;8.07;;;;;;;10.45;100.00;100446.91;5028965;28;20225;-59
2022/12/18 07:58:06;;;;;;;10.97;9.20;;;;;;;10.48;100.00;100458.97;5045176;28;20200;-56
2022/12/18 08:00:33;;;;;;;10.57;9.47;;;;;;;10.57;100.00;100464.06;5070143;28;20194;-56
2022/12/18 08:03:00;;;;;;;12.37;10.37;;;;;;;10.61;100.00;100468.28;5069678;28;20702;-57
2022/12/18 08:05:27;;;;;;;9.47;8.27;;;;;;;10.53;100.00;100458.03;5069717;28;20200;-60
2022/12/18 08:07:55;;;;;;;12.53;8.73;;;;;;;10.65;100.00;100471.72;5069558;28;20231;-57
2022/12/18 08:10:22;;;;;;;11.23;10.03;;;;;;;10.70;100.00;100477.72;5069797;28;20577;-57
2022/12/18 08:12:51;;;;;;;10.33;9.07;;;;;;;10.75;100.00;100474.16;5070012;28;20579;-60
2022/12/18 08:15:19;;;;;;;23.07;17.10;;;;;;;10.73;100.00;100475.06;5069151;28;20223;-60
2022/12/18 08:17:46;;;;;;;12.03;10.30;;;;;;;10.75;100.00;100481.94;5069680;28;20195;-60
2022/12/18 08:20:14;;;;;;;12.20;9.93;;;;;;;10.82;100.00;100488.78;5069780;28;20196;-60
2022/12/18 08:22:42;;;;;;;10.63;8.90;;;;;;;10.78;100.00;100497.50;5069177;28;20196;-59
2022/12/18 08:25:09;;;;;;;11.73;9.03;;;;;;;10.73;100.00;100481.09;5069166;28;20191;-60
2022/12/18 08:27:37;;;;;;;10.07;8.90;;;;;;;10.82;100.00;100488.78;5069182;28;20216;-60
2022/12/18 08:30:05;;;;;;;11.50;9.43;;;;;;;10.89;100.00;100502.53;5069196;28;20668;-59
2022/12/18 08:32:33;;;;;;;12.00;8.80;;;;;;;10.95;100.00;100499.84;5069459;28;20629;-59
2022/12/18 08:35:00;;;;;;;10.30;9.03;;;;;;;10.91;100.00;100501.66;5069063;28;20204;-59
2022/12/18 08:37:27;;;;;;;12.07;8.63;;;;;;;10.97;100.00;100502.41;5069113;28;20224;-57
2022/12/18 08:39:54;;;;;;;10.97;8.90;;;;;;;10.95;100.00;100496.41;5068963;28;20204;-56
2022/12/18 08:45:06;;;;;;;11.07;9.90;;;;;;;11.11;100.00;100492.69;5069205;28;20210;-57
2022/12/18 08:47:34;;;;;;;11.10;9.77;;;;;;;11.11;100.00;100488.34;5068829;28;20857;-57
2022/12/18 08:50:01;;;;;;;12.50;9.17;;;;;;;11.08;100.00;100491.00;5068907;28;20374;-56
2022/12/18 08:52:28;;;;;;;10.30;9.20;;;;;;;11.15;100.00;100487.44;5068835;28;20200;-57
2022/12/18 08:54:55;;;;;;;13.63;10.50;;;;;;;11.11;100.00;100482.28;5068857;28;20283;-56
2022/12/18 08:57:22;;;;;;;15.43;10.27;;;;;;;11.12;100.00;100484.88;5068306;28;20192;-57
2022/12/18 08:59:49;;;;;;;16.40;11.27;;;;;;;11.17;100.00;100484.81;5068783;28;20706;-57
2022/12/18 09:02:16;;;;;;;16.40;12.63;;;;;;;11.16;100.00;100478.75;5068551;28;20203;-57
2022/12/18 09:04:44;;;;;;;13.97;10.00;;;;;;;11.24;100.00;100484.69;5068741;28;20476;-57
2022/12/18 09:07:11;;;;;;;28.97;17.37;;;;;;;11.28;100.00;100488.09;5049980;28;20365;-56
2022/12/18 09:09:38;;;;;;;46.97;27.00;;;;;;;11.30;100.00;100488.91;5049011;28;20280;-59
2022/12/18 09:12:05;;;;;;;64.13;36.37;;;;;;;11.24;100.00;100471.69;5058334;28;20195;-57
2022/12/18 09:14:32;;;;;;;41.73;26.20;;;;;;;11.37;100.00;100493.16;5068297;28;20231;-56
2022/12/18 09:16:59;;;;;;;32.47;20.17;;;;;;;11.37;100.00;100490.53;5067893;28;20271;-56
2022/12/18 09:19:25;;;;;;;35.20;23.83;;;;;;;11.43;100.00;100490.44;5068494;28;20278;-58
2022/12/18 09:21:54;;;;;;;20.80;15.10;;;;;;;11.29;100.00;100487.19;5068544;28;20287;-58
2022/12/18 09:24:24;;;;;;;18.13;12.87;;;;;;;11.42;100.00;100485.25;5068449;28;20196;-56
2022/12/18 09:26:54;;;;;;;19.30;14.20;;;;;;;11.40;100.00;100484.44;5054020;28;20558;-57
2022/12/18 09:29:22;;;;;;;16.73;12.27;;;;;;;11.36;100.00;100493.16;5048209;28;20228;-58
2022/12/18 09:31:49;;;;;;;14.93;12.43;;;;;;;11.29;100.00;100484.59;5048386;28;20228;-56
2022/12/18 09:34:16;;;;;;;12.17;10.03;;;;;;;11.25;100.00;100489.00;5040496;28;20307;-57
2022/12/18 09:36:43;;;;;;;13.67;11.93;;;;;;;11.30;100.00;100491.50;5060785;28;20221;-57
2022/12/18 09:39:11;;;;;;;13.03;10.83;;;;;;;11.33;100.00;100493.19;5035814;28;20224;-57
2022/12/18 09:41:45;;;;;;;10.87;9.37;;;;;;;11.33;100.00;100483.66;5041097;28;20220;-58
2022/12/18 09:44:19;;;;;;;11.77;10.47;;;;;;;11.33;100.00;100494.06;5048705;28;20220;-57
2022/12/18 09:46:50;;;;;;;13.40;10.97;;;;;;;11.41;100.00;100480.94;5048639;28;20726;-56
2022/12/18 09:49:20;;;;;;;12.07;9.30;;;;;;;11.41;100.00;100487.00;5047477;28;20319;-60
2022/12/18 09:51:52;;;;;;;10.67;9.47;;;;;;;11.43;100.00;100481.78;5048629;28;20224;-59
2022/12/18 09:54:25;;;;;;;14.03;11.60;;;;;;;11.37;100.00;100480.16;5047713;28;20192;-60
2022/12/18 09:56:52;;;;;;;13.23;10.00;;;;;;;11.29;100.00;100492.38;5049090;28;20596;-59
2022/12/18 09:59:25;;;;;;;11.23;9.60;;;;;;;11.16;100.00;100485.69;5048964;28;20240;-60
2022/12/18 10:01:52;;;;;;;12.60;11.30;;;;;;;11.11;100.00;100487.50;5048878;28;20192;-60
2022/12/18 10:04:19;;;;;;;12.33;10.33;;;;;;;11.12;100.00;100492.66;5048412;28;20587;-57
2022/12/18 10:06:54;;;;;;;13.40;11.17;;;;;;;11.21;100.00;100489.91;5048762;28;20197;-60
2022/12/18 10:09:30;;;;;;;12.97;10.50;;;;;;;11.21;100.00;100489.91;5048971;28;20655;-57
2022/12/18 10:12:05;;;;;;;14.10;10.60;;;;;;;11.22;100.00;100489.03;5053789;28;20192;-58
2022/12/18 10:14:42;;;;;;;16.90;11.83;;;;;;;11.35;100.00;100488.84;5066701;28;20195;-58
2022/12/18 10:17:19;;;;;;;14.27;12.23;;;;;;;11.32;100.00;100488.88;5067541;28;20314;-58
2022/12/18 10:19:51;;;;;;;14.93;10.83;;;;;;;11.23;100.00;100463.91;5068713;28;20222;-56
2022/12/18 10:22:39;;;;;;;15.90;14.20;;;;;;;11.33;100.00;100494.06;5068524;28;20283;-55
2022/12/18 10:25:20;;;;;;;13.90;11.47;;;;;;;11.31;100.00;100490.63;5067657;28;20574;-57
2022/12/18 10:27:47;;;;;;;14.00;9.83;;;;;;;11.35;100.00;100491.44;5066005;28;20604;-57
2022/12/18 10:30:16;;;;;;;12.90;10.57;;;;;;;11.35;100.00;100499.25;5062546;28;20683;-57
2022/12/18 10:32:44;;;;;;;12.03;10.43;;;;;;;11.39;100.00;100493.97;5067244;28;20591;-56
2022/12/18 10:35:18;;;;;;;11.60;9.97;;;;;;;11.44;100.00;100493.88;5067086;28;20198;-56
2022/12/18 10:38:02;;;;;;;14.13;10.50;;;;;;;11.42;100.00;100499.09;5063875;28;20579;-57
2022/12/18 10:40:30;;;;;;;14.50;11.77;;;;;;;11.40;100.00;100493.06;5065114;28;20737;-56
2022/12/18 10:43:12;;;;;;;17.43;13.53;;;;;;;11.31;100.00;100489.78;5067923;28;20192;-57
2022/12/18 10:45:39;;;;;;;26.87;17.13;;;;;;;11.39;100.00;100501.78;5062024;28;20196;-59
2022/12/18 10:48:20;;;;;;;20.73;14.00;;;;;;;11.38;100.00;100502.66;5067088;28;20583;-56
2022/12/18 10:50:49;;;;;;;13.80;10.50;;;;;;;11.33;100.00;100504.47;5062477;28;20209;-57
2022/12/18 10:53:21;;;;;;;11.97;10.20;;;;;;;11.31;100.00;100511.41;5069418;28;20196;-59
2022/12/18 10:55:50;;;;;;;14.80;9.93;;;;;;;11.29;100.00;100514.03;5063511;28;20627;-58
2022/12/18 10:58:23;;;;;;;11.50;9.57;;;;;;;11.20;100.00;100514.19;5071142;28;20195;-61
2022/12/18 11:01:04;;;;;;;11.03;9.63;;;;;;;11.22;100.00;100516.78;5070039;28;20210;-58
2022/12/18 11:03:35;;;;;;;10.73;9.63;;;;;;;11.21;100.00;100523.72;5068104;28;20257;-61
2022/12/18 11:06:11;;;;;;;10.77;9.33;;;;;;;11.15;100.00;100528.16;5065509;28;20667;-61
2022/12/18 11:08:38;;;;;;;21.27;14.30;;;;;;;11.05;100.00;100530.03;5070573;28;20247;-61
2022/12/18 11:11:17;;;;;;;29.30;16.57;;;;;;;10.99;100.00;100527.50;5071156;28;20605;-61
2022/12/18 11:13:59;;;;;;;26.90;15.83;;;;;;;10.89;100.00;100528.50;5066726;28;20608;-58
2022/12/18 11:16:28;;;;;;;17.47;12.77;;;;;;;10.89;100.00;100524.19;5066722;28;20636;-58
2022/12/18 11:18:55;;;;;;;35.30;19.87;;;;;;;10.97;100.00;100533.59;5070376;28;20196;-58